createdAt,value
2022-10-09T00:02:43.752Z,3.63
2022-10-09T00:05:29.082Z,3.40
2022-10-09T00:08:14.314Z,3.50
2022-10-09T00:10:59.576Z,3.20
2022-10-09T00:13:45.448Z,3.40
2022-10-09T00:16:31.080Z,3.77
2022-10-09T00:19:16.266Z,3.10
2022-10-09T00:22:01.607Z,3.10
2022-10-09T00:24:46.861Z,3.30
2022-10-09T00:27:32.634Z,3.33
2022-10-09T00:30:18.055Z,3.20
2022-10-09T00:33:03.343Z,3.70
2022-10-09T00:35:49.148Z,3.07
2022-10-09T00:38:35.012Z,3.20
2022-10-09T00:41:25.546Z,3.00
2022-10-09T00:45:06.715Z,3.40
2022-10-09T00:47:56.594Z,2.93
2022-10-09T00:50:52.952Z,2.93
2022-10-09T00:53:38.732Z,2.67
2022-10-09T00:56:25.620Z,2.87
2022-10-09T00:59:11.916Z,2.80
2022-10-09T01:01:57.429Z,2.97
2022-10-09T01:04:42.651Z,2.70
2022-10-09T01:08:03.746Z,2.97
2022-10-09T01:11:11.081Z,2.67
2022-10-09T01:14:07.258Z,2.73
2022-10-09T01:17:25.151Z,3.00
2022-10-09T01:20:16.564Z,2.80
2022-10-09T01:23:13.585Z,2.93
2022-10-09T01:26:07.931Z,2.77
2022-10-09T01:29:00.335Z,2.70
2022-10-09T01:31:48.988Z,2.80
2022-10-09T01:34:34.514Z,2.83
2022-10-09T01:37:22.485Z,3.17
2022-10-09T01:40:10.105Z,2.67
2022-10-09T01:42:56.350Z,2.80
2022-10-09T01:45:44.626Z,2.77
2022-10-09T01:48:30.210Z,2.90
2022-10-09T01:51:16.815Z,2.73
2022-10-09T01:54:07.154Z,2.43
2022-10-09T01:56:55.645Z,2.50
2022-10-09T01:59:45.066Z,2.37
2022-10-09T02:02:30.943Z,2.40
2022-10-09T02:05:22.339Z,3.00
2022-10-09T02:08:10.555Z,2.60
2022-10-09T02:10:59.651Z,2.77
2022-10-09T02:13:47.668Z,2.30
2022-10-09T02:16:42.200Z,2.57
2022-10-09T02:19:37.122Z,2.20
2022-10-09T02:22:29.207Z,2.30
2022-10-09T02:25:15.969Z,2.20
2022-10-09T02:28:01.786Z,2.10
2022-10-09T02:31:13.433Z,2.37
2022-10-09T02:34:01.567Z,2.40
2022-10-09T02:36:48.093Z,2.23
2022-10-09T02:39:33.755Z,2.00
2022-10-09T02:42:19.356Z,2.20
2022-10-09T02:45:05.071Z,2.20
2022-10-09T02:47:50.508Z,2.17
2022-10-09T02:50:36.262Z,2.37
2022-10-09T02:53:21.513Z,2.10
2022-10-09T02:56:06.937Z,2.20
2022-10-09T02:58:52.313Z,2.20
2022-10-09T03:01:38.087Z,1.97
2022-10-09T03:04:23.860Z,2.10
2022-10-09T03:07:09.025Z,2.20
2022-10-09T03:09:54.435Z,1.90
2022-10-09T03:12:39.567Z,1.87
2022-10-09T03:15:25.157Z,2.00
2022-10-09T03:18:10.624Z,1.67
2022-10-09T03:20:55.982Z,2.13
2022-10-09T03:23:42.725Z,1.90
2022-10-09T03:26:28.598Z,1.77
2022-10-09T03:29:14.096Z,1.93
2022-10-09T03:31:59.318Z,1.80
2022-10-09T03:34:44.601Z,2.17
2022-10-09T03:37:29.963Z,1.80
2022-10-09T03:40:15.312Z,1.70
2022-10-09T03:43:00.598Z,2.00
2022-10-09T03:45:46.289Z,1.77
2022-10-09T03:48:31.577Z,1.80
2022-10-09T03:51:16.952Z,1.87
2022-10-09T03:54:02.198Z,1.90
2022-10-09T03:56:47.621Z,1.57
2022-10-09T03:59:32.924Z,1.73
2022-10-09T04:02:18.259Z,1.90
2022-10-09T04:05:03.739Z,1.87
2022-10-09T04:07:49.354Z,1.87
2022-10-09T04:10:34.756Z,1.53
2022-10-09T04:13:19.982Z,1.73
2022-10-09T04:16:05.959Z,1.83
2022-10-09T04:18:51.485Z,1.90
2022-10-09T04:21:37.158Z,1.80
2022-10-09T04:24:22.502Z,1.97
2022-10-09T04:27:07.671Z,2.00
2022-10-09T04:29:53.183Z,1.67
2022-10-09T04:32:38.390Z,1.60
2022-10-09T04:35:23.753Z,1.63
2022-10-09T04:38:09.206Z,1.43
2022-10-09T04:41:07.522Z,1.77
2022-10-09T04:43:56.809Z,1.43
2022-10-09T04:46:42.345Z,1.50
2022-10-09T04:49:27.906Z,1.60
2022-10-09T04:52:13.214Z,1.60
2022-10-09T04:54:58.416Z,1.67
2022-10-09T04:57:43.854Z,1.47
2022-10-09T05:00:29.056Z,1.60
2022-10-09T05:03:14.369Z,1.57
2022-10-09T05:06:04.469Z,1.30
2022-10-09T05:08:50.399Z,1.60
2022-10-09T05:11:39.175Z,1.60
2022-10-09T05:14:27.169Z,1.33
2022-10-09T05:17:14.696Z,1.60
2022-10-09T05:20:01.186Z,2.10
2022-10-09T05:22:47.576Z,1.80
2022-10-09T05:25:33.533Z,1.37
2022-10-09T05:28:18.787Z,1.87
2022-10-09T05:31:07.662Z,1.70
2022-10-09T05:33:54.801Z,1.50
2022-10-09T05:36:40.671Z,1.60
2022-10-09T05:39:27.123Z,1.70
2022-10-09T05:42:13.292Z,1.80
2022-10-09T05:44:59.885Z,1.73
2022-10-09T05:47:46.521Z,1.90
2022-10-09T05:50:32.936Z,2.00
2022-10-09T05:53:18.966Z,1.70
2022-10-09T05:56:18.760Z,2.00
2022-10-09T05:59:05.659Z,2.33
2022-10-09T06:01:52.105Z,2.10
2022-10-09T06:04:38.930Z,1.70
2022-10-09T06:07:24.531Z,1.97
2022-10-09T06:10:10.418Z,1.60
2022-10-09T06:12:58.196Z,1.80
2022-10-09T06:15:54.798Z,2.00
2022-10-09T06:18:42.820Z,1.47
2022-10-09T06:21:31.346Z,1.80
2022-10-09T06:24:27.382Z,2.00
2022-10-09T06:27:14.212Z,2.10
2022-10-09T06:29:59.418Z,1.67
2022-10-09T06:32:44.774Z,2.17
2022-10-09T06:35:34.698Z,2.77
2022-10-09T06:38:20.007Z,2.53
2022-10-09T06:41:08.506Z,2.77
2022-10-09T06:43:55.347Z,2.53
2022-10-09T06:46:41.735Z,2.60
2022-10-09T06:49:27.276Z,2.83
2022-10-09T06:52:12.703Z,3.83
2022-10-09T06:54:57.977Z,2.93
2022-10-09T06:57:43.245Z,2.77
2022-10-09T07:00:28.588Z,2.60
2022-10-09T07:03:16.431Z,2.83
2022-10-09T07:06:12.444Z,2.93
2022-10-09T07:09:00.887Z,3.07
2022-10-09T07:11:49.304Z,2.50
2022-10-09T07:14:34.922Z,2.17
2022-10-09T07:17:20.270Z,2.37
2022-10-09T07:20:05.790Z,2.30
2022-10-09T07:22:51.314Z,2.27
2022-10-09T07:25:39.844Z,2.40
2022-10-09T07:28:27.560Z,2.23
2022-10-09T07:31:13.943Z,2.40
2022-10-09T07:33:59.565Z,2.17
2022-10-09T07:36:44.866Z,2.10
2022-10-09T07:39:30.375Z,2.63
2022-10-09T07:42:15.869Z,2.40
2022-10-09T07:45:01.277Z,2.50
2022-10-09T07:47:46.562Z,2.50
2022-10-09T07:50:31.801Z,2.43
2022-10-09T07:53:16.865Z,2.30
2022-10-09T07:56:02.256Z,2.43
2022-10-09T07:58:58.964Z,2.30
2022-10-09T08:01:46.040Z,2.33
2022-10-09T08:04:32.959Z,2.40
2022-10-09T08:07:18.712Z,2.20
2022-10-09T08:10:05.102Z,2.53
2022-10-09T08:12:51.103Z,2.30
2022-10-09T08:15:44.394Z,2.50
2022-10-09T08:18:30.104Z,2.15
2022-10-09T08:21:18.925Z,2.00
2022-10-09T08:24:04.824Z,2.67
2022-10-09T08:26:50.214Z,3.33
2022-10-09T08:29:39.375Z,3.53
2022-10-09T08:32:25.893Z,3.10
2022-10-09T08:35:11.289Z,2.93
2022-10-09T08:37:56.664Z,9.73
2022-10-09T08:40:58.132Z,13.33
2022-10-09T08:43:47.354Z,6.90
2022-10-09T08:46:44.338Z,5.50
2022-10-09T08:49:33.050Z,5.13
2022-10-09T08:52:28.294Z,4.87
2022-10-09T08:55:28.095Z,4.97
2022-10-09T08:58:21.158Z,4.70
2022-10-09T09:01:24.700Z,4.65
2022-10-09T09:07:21.908Z,4.40
2022-10-09T09:10:29.334Z,4.53
2022-10-09T09:13:46.388Z,7.13
2022-10-09T09:17:24.633Z,7.03
2022-10-09T09:20:27.274Z,5.53
2022-10-09T09:23:15.708Z,4.77
2022-10-09T09:26:02.218Z,5.43
2022-10-09T09:28:53.298Z,5.37
2022-10-09T09:31:40.614Z,6.47
2022-10-09T09:34:37.803Z,6.73
2022-10-09T09:37:23.613Z,6.70
2022-10-09T09:40:36.100Z,5.90
2022-10-09T09:46:19.223Z,5.77
2022-10-09T09:49:19.275Z,5.27
2022-10-09T09:52:09.528Z,6.80
2022-10-09T09:54:58.132Z,6.63
2022-10-09T09:57:45.243Z,5.60
2022-10-09T10:00:31.450Z,4.10
2022-10-09T10:03:18.029Z,3.07
2022-10-09T10:06:04.270Z,3.90
2022-10-09T10:09:04.657Z,4.80
2022-10-09T10:12:00.584Z,4.50
2022-10-09T10:14:50.383Z,4.30
2022-10-09T10:17:37.582Z,3.70
2022-10-09T10:20:24.007Z,4.83
2022-10-09T10:23:43.585Z,3.70
2022-10-09T10:26:47.940Z,4.47
2022-10-09T10:29:41.437Z,4.20
2022-10-09T10:32:32.440Z,9.17
2022-10-09T10:35:24.288Z,44.87
2022-10-09T10:38:18.255Z,118.00
2022-10-09T10:41:24.595Z,69.37
2022-10-09T10:44:28.796Z,66.00
2022-10-09T10:47:24.189Z,126.47
2022-10-09T10:50:14.563Z,41.30
2022-10-09T10:53:39.860Z,35.17
2022-10-09T10:56:38.353Z,18.00
2022-10-09T10:59:45.279Z,47.77
2022-10-09T11:02:58.629Z,19.50
2022-10-09T11:05:57.673Z,22.13
2022-10-09T11:08:52.098Z,49.70
2022-10-09T11:11:50.588Z,67.80
2022-10-09T11:14:42.234Z,67.80
2022-10-09T11:17:34.286Z,69.30
2022-10-09T11:20:47.700Z,65.53
2022-10-09T11:23:54.865Z,29.60
2022-10-09T11:27:03.170Z,13.73
2022-10-09T11:30:13.872Z,13.30
2022-10-09T11:33:32.909Z,11.50
2022-10-09T11:36:36.384Z,8.67
2022-10-09T11:39:25.652Z,9.60
2022-10-09T11:42:23.399Z,8.60
2022-10-09T11:45:21.591Z,8.53
2022-10-09T11:48:34.452Z,7.20
2022-10-09T11:51:47.350Z,6.80
2022-10-09T11:54:33.689Z,6.80
2022-10-09T11:57:28.463Z,6.50
2022-10-09T12:00:15.046Z,10.53
2022-10-09T12:03:05.170Z,8.10
2022-10-09T12:05:51.413Z,11.37
2022-10-09T12:08:39.576Z,18.13
2022-10-09T12:11:25.942Z,18.87
2022-10-09T12:14:23.621Z,17.63
2022-10-09T12:17:34.287Z,18.27
2022-10-09T12:20:23.761Z,11.03
2022-10-09T12:23:27.492Z,11.67
2022-10-09T12:26:14.634Z,16.53
2022-10-09T12:29:02.899Z,18.10
2022-10-09T12:31:52.852Z,20.20
2022-10-09T12:34:45.992Z,20.70
2022-10-09T12:37:34.664Z,22.10
2022-10-09T12:40:28.684Z,22.57
2022-10-09T12:43:18.429Z,24.67
2022-10-09T12:46:04.232Z,17.13
2022-10-09T12:48:49.405Z,21.93
2022-10-09T12:51:34.771Z,21.07
2022-10-09T12:54:20.545Z,20.47
2022-10-09T12:57:06.107Z,21.37
2022-10-09T12:59:51.783Z,20.50
2022-10-09T13:02:37.707Z,19.90
2022-10-09T13:05:22.984Z,21.43
2022-10-09T13:08:40.898Z,19.40
2022-10-09T13:11:40.689Z,19.63
2022-10-09T13:14:51.977Z,18.43
2022-10-09T13:17:40.469Z,18.80
2022-10-09T13:20:29.536Z,18.97
2022-10-09T13:23:29.108Z,17.87
2022-10-09T13:26:30.397Z,18.23
2022-10-09T13:29:15.672Z,18.67
2022-10-09T13:32:02.637Z,17.57
2022-10-09T13:34:47.957Z,17.23
2022-10-09T13:37:33.208Z,8.37
2022-10-09T13:40:21.807Z,14.83
2022-10-09T13:43:11.463Z,14.33
2022-10-09T13:45:57.711Z,15.40
2022-10-09T13:48:43.409Z,14.50
2022-10-09T13:51:29.332Z,15.20
2022-10-09T13:54:14.734Z,14.60
2022-10-09T13:57:00.118Z,20.40
2022-10-09T13:59:45.383Z,29.57
2022-10-09T14:02:30.730Z,30.00
2022-10-09T14:05:16.252Z,33.63
2022-10-09T14:08:03.017Z,34.63
2022-10-09T14:10:48.913Z,33.83
2022-10-09T14:13:34.182Z,33.60
2022-10-09T14:16:19.476Z,31.23
2022-10-09T14:19:07.189Z,33.70
2022-10-09T14:21:53.081Z,31.93
2022-10-09T14:24:38.274Z,30.97
2022-10-09T14:27:23.708Z,29.67
2022-10-09T14:30:09.534Z,29.53
2022-10-09T14:32:55.546Z,29.97
2022-10-09T14:35:40.811Z,29.47
2022-10-09T14:38:26.296Z,25.77
2022-10-09T14:41:13.742Z,25.00
2022-10-09T14:44:00.197Z,24.03
2022-10-09T14:46:45.667Z,22.83
2022-10-09T14:49:31.050Z,22.23
2022-10-09T14:52:16.255Z,22.47
2022-10-09T14:55:01.499Z,21.87
2022-10-09T14:57:46.809Z,23.10
2022-10-09T15:00:32.119Z,22.13
2022-10-09T15:03:17.388Z,22.33
2022-10-09T15:06:06.205Z,22.17
2022-10-09T15:08:55.365Z,21.20
2022-10-09T15:11:40.827Z,13.63
2022-10-09T15:14:26.487Z,8.50
2022-10-09T15:17:12.193Z,12.27
2022-10-09T15:19:57.453Z,13.23
2022-10-09T15:22:42.786Z,12.70
2022-10-09T15:25:31.873Z,8.43
2022-10-09T15:28:17.682Z,11.23
2022-10-09T15:31:04.928Z,11.37
2022-10-09T15:33:52.256Z,12.10
2022-10-09T15:36:40.011Z,12.40
2022-10-09T15:39:25.586Z,12.47
2022-10-09T15:42:10.848Z,12.00
2022-10-09T15:44:56.045Z,11.07
2022-10-09T15:47:50.797Z,12.77
2022-10-09T15:50:37.057Z,12.20
2022-10-09T15:53:24.352Z,12.03
2022-10-09T15:56:12.742Z,12.33
2022-10-09T15:58:58.560Z,11.20
2022-10-09T16:01:44.379Z,11.80
2022-10-09T16:04:29.595Z,11.50
2022-10-09T16:07:14.888Z,10.77
2022-10-09T16:10:00.782Z,11.97
2022-10-09T16:12:47.726Z,12.27
2022-10-09T16:15:33.229Z,12.57
2022-10-09T16:18:22.484Z,14.53
2022-10-09T16:21:19.472Z,13.17
2022-10-09T16:24:05.293Z,14.27
2022-10-09T16:26:51.282Z,14.63
2022-10-09T16:29:37.668Z,14.07
2022-10-09T16:32:23.929Z,14.40
2022-10-09T16:35:09.907Z,14.90
2022-10-09T16:37:56.016Z,15.57
2022-10-09T16:41:01.529Z,13.80
2022-10-09T16:43:51.760Z,14.90
2022-10-09T16:46:37.568Z,14.80
2022-10-09T16:49:25.235Z,14.53
2022-10-09T16:52:13.489Z,15.43
2022-10-09T16:55:00.868Z,13.90
2022-10-09T16:57:47.358Z,14.67
2022-10-09T17:00:33.067Z,14.50
2022-10-09T17:03:20.953Z,14.90
2022-10-09T17:06:11.981Z,14.47
2022-10-09T17:08:59.748Z,13.77
2022-10-09T17:11:45.992Z,14.83
2022-10-09T17:14:32.105Z,13.80
2022-10-09T17:17:18.234Z,14.10
2022-10-09T17:20:03.558Z,13.73
2022-10-09T17:22:49.979Z,13.30
2022-10-09T17:25:41.348Z,13.20
2022-10-09T17:28:27.691Z,12.30
2022-10-09T17:31:16.616Z,12.53
2022-10-09T17:34:04.991Z,11.93
2022-10-09T17:36:50.407Z,12.40
2022-10-09T17:39:36.056Z,11.93
2022-10-09T17:42:21.385Z,11.07
2022-10-09T17:45:07.356Z,9.40
2022-10-09T17:47:52.812Z,9.20
2022-10-09T17:50:38.320Z,10.50
2022-10-09T17:53:24.313Z,9.67
2022-10-09T17:56:10.478Z,8.80
2022-10-09T17:58:56.255Z,8.63
2022-10-09T18:01:42.033Z,8.10
2022-10-09T18:04:27.592Z,7.70
2022-10-09T18:07:13.915Z,7.80
2022-10-09T18:09:59.170Z,8.40
2022-10-09T18:12:44.619Z,7.43
2022-10-09T18:15:30.018Z,8.00
2022-10-09T18:18:15.638Z,7.90
2022-10-09T18:21:06.895Z,8.40
2022-10-09T18:23:52.865Z,7.40
2022-10-09T18:26:39.550Z,7.73
2022-10-09T18:29:24.855Z,8.33
2022-10-09T18:32:10.727Z,7.97
2022-10-09T18:34:56.569Z,7.80
2022-10-09T18:37:42.025Z,8.00
2022-10-09T18:40:27.515Z,7.67
2022-10-09T18:43:13.530Z,7.30
2022-10-09T18:46:01.720Z,8.03
2022-10-09T18:48:47.311Z,7.33
2022-10-09T18:51:34.114Z,7.00
2022-10-09T18:54:26.057Z,7.73
2022-10-09T18:57:12.444Z,6.90
2022-10-09T19:00:02.092Z,7.03
2022-10-09T19:02:47.854Z,6.67
2022-10-09T19:05:33.775Z,7.67
2022-10-09T19:08:19.479Z,7.00
2022-10-09T19:11:07.687Z,7.33
2022-10-09T19:13:55.029Z,6.97
2022-10-09T19:16:42.416Z,6.87
2022-10-09T19:19:30.170Z,7.00
2022-10-09T19:22:20.045Z,6.43
2022-10-09T19:25:09.611Z,6.32
2022-10-09T19:27:56.102Z,6.80
2022-10-09T19:30:43.217Z,7.20
2022-10-09T19:33:29.483Z,6.63
2022-10-09T19:36:15.299Z,6.10
2022-10-09T19:39:01.602Z,6.70
2022-10-09T19:41:48.915Z,6.20
2022-10-09T19:44:34.390Z,6.97
2022-10-09T19:47:21.537Z,8.00
2022-10-09T19:50:07.313Z,8.00
2022-10-09T19:52:52.495Z,6.80
2022-10-09T19:55:38.886Z,7.17
2022-10-09T19:58:24.439Z,7.40
2022-10-09T20:01:11.232Z,7.10
2022-10-09T20:04:02.433Z,7.37
2022-10-09T20:06:48.428Z,6.33
2022-10-09T20:09:33.524Z,6.70
2022-10-09T20:12:19.329Z,6.70
2022-10-09T20:15:05.416Z,6.23
2022-10-09T20:17:50.620Z,6.40
2022-10-09T20:20:36.281Z,6.57
2022-10-09T20:23:21.797Z,6.40
2022-10-09T20:26:10.978Z,6.43
2022-10-09T20:28:56.582Z,6.53
2022-10-09T20:31:41.941Z,5.53
2022-10-09T20:34:27.775Z,5.70
2022-10-09T20:37:13.258Z,5.97
2022-10-09T20:39:58.527Z,5.83
2022-10-09T20:42:44.236Z,6.07
2022-10-09T20:45:29.618Z,5.87
2022-10-09T20:48:15.324Z,6.50
2022-10-09T20:51:01.102Z,6.10
2022-10-09T20:53:50.827Z,5.27
2022-10-09T20:56:36.814Z,6.07
2022-10-09T20:59:22.236Z,5.83
2022-10-09T21:02:07.549Z,5.50
2022-10-09T21:04:52.908Z,5.50
2022-10-09T21:07:38.101Z,5.43
2022-10-09T21:10:23.464Z,6.53
2022-10-09T21:13:08.776Z,5.23
2022-10-09T21:15:54.194Z,5.60
2022-10-09T21:18:40.205Z,5.70
2022-10-09T21:21:27.339Z,5.93
2022-10-09T21:24:13.223Z,5.60
2022-10-09T21:26:58.516Z,5.43
2022-10-09T21:29:43.888Z,5.37
2022-10-09T21:32:29.041Z,5.33
2022-10-09T21:35:14.287Z,6.00
2022-10-09T21:37:59.595Z,5.33
2022-10-09T21:40:45.706Z,5.07
2022-10-09T21:43:31.207Z,5.27
2022-10-09T21:46:16.470Z,5.77
2022-10-09T21:49:05.466Z,5.00
2022-10-09T21:51:54.022Z,4.63
2022-10-09T21:54:39.556Z,5.37
2022-10-09T21:57:24.646Z,5.33
2022-10-09T22:00:11.015Z,5.43
2022-10-09T22:02:56.343Z,5.17
2022-10-09T22:05:41.752Z,5.20
2022-10-09T22:08:27.574Z,4.93
2022-10-09T22:11:12.970Z,5.00
2022-10-09T22:13:58.325Z,4.93
2022-10-09T22:16:43.770Z,5.03
2022-10-09T22:19:28.996Z,5.27
2022-10-09T22:22:14.206Z,5.00
2022-10-09T22:25:00.391Z,4.87
2022-10-09T22:27:45.497Z,4.43
2022-10-09T22:30:31.741Z,5.33
2022-10-09T22:33:17.156Z,4.77
2022-10-09T22:36:08.388Z,4.80
2022-10-09T22:38:55.851Z,4.47
2022-10-09T22:41:41.599Z,5.17
2022-10-09T22:44:26.822Z,4.37
2022-10-09T22:47:12.025Z,5.00
2022-10-09T22:49:57.459Z,4.60
2022-10-09T22:52:42.967Z,4.50
2022-10-09T22:55:28.326Z,4.70
2022-10-09T22:58:13.694Z,4.30
2022-10-09T23:01:09.868Z,4.73
2022-10-09T23:03:56.239Z,4.93
2022-10-09T23:06:42.928Z,4.40
2022-10-09T23:09:31.481Z,4.50
2022-10-09T23:12:16.843Z,4.50
2022-10-09T23:15:02.145Z,4.57
2022-10-09T23:17:47.545Z,4.30
2022-10-09T23:20:36.270Z,4.03
2022-10-09T23:23:21.995Z,4.17
2022-10-09T23:26:12.259Z,4.27
2022-10-09T23:29:00.037Z,4.37
2022-10-09T23:31:45.847Z,4.37
2022-10-09T23:34:31.090Z,4.37
2022-10-09T23:37:16.231Z,4.57
2022-10-09T23:40:01.499Z,4.70
2022-10-09T23:42:46.759Z,4.37
2022-10-09T23:45:32.106Z,3.80
2022-10-09T23:48:17.361Z,4.50
2022-10-09T23:51:02.956Z,4.20
2022-10-09T23:53:48.717Z,3.87
2022-10-09T23:56:35.601Z,3.90
2022-10-09T23:59:21.129Z,4.43
